createdAt,value
2022-10-03T00:00:38.086Z,100098.34
2022-10-03T00:03:48.170Z,100102.25
2022-10-03T00:06:39.939Z,100115.09
2022-10-03T00:09:33.441Z,100109.94
2022-10-03T00:12:43.198Z,100103.28
2022-10-03T00:16:06.906Z,100110.72
2022-10-03T00:18:46.709Z,100110.72
2022-10-03T00:21:42.220Z,100109.09
2022-10-03T00:24:52.712Z,100109.91
2022-10-03T00:27:45.635Z,100106.13
2022-10-03T00:30:31.017Z,100111.56
2022-10-03T00:33:17.977Z,100099.53
2022-10-03T00:36:18.156Z,100101.81
2022-10-03T00:39:25.518Z,100103.25
2022-10-03T00:42:15.986Z,100101.97
2022-10-03T00:45:07.082Z,100106.13
2022-10-03T00:48:10.468Z,100099.91
2022-10-03T00:50:59.260Z,100102.38
2022-10-03T00:54:21.604Z,100095.13
2022-10-03T00:57:06.578Z,100099.47
2022-10-03T01:00:12.827Z,100105.66
2022-10-03T01:02:54.967Z,100105.66
2022-10-03T01:05:39.271Z,100102.72
2022-10-03T01:08:36.187Z,100112.69
2022-10-03T01:11:43.636Z,100113.94
2022-10-03T01:14:46.442Z,100106.53
2022-10-03T01:17:55.110Z,100117.28
2022-10-03T01:20:36.804Z,100122.44
2022-10-03T01:23:54.508Z,100117.69
2022-10-03T01:27:05.429Z,100129.66
2022-10-03T01:30:10.751Z,100131.75
2022-10-03T01:33:19.504Z,100130.06
2022-10-03T01:36:04.195Z,100136.09
2022-10-03T01:39:18.414Z,100141.28
2022-10-03T01:45:27.708Z,100142.47
2022-10-03T01:48:11.696Z,100143.66
2022-10-03T01:51:19.624Z,100150.72
2022-10-03T01:54:19.218Z,100150.25
2022-10-03T01:56:59.911Z,100159.75
2022-10-03T01:59:47.978Z,100156.88
2022-10-03T02:02:47.498Z,100161.84
2022-10-03T02:05:47.610Z,100168.00
2022-10-03T02:08:41.464Z,100171.72
2022-10-03T02:11:25.661Z,100175.41
2022-10-03T02:14:15.821Z,100184.72
2022-10-03T02:16:58.736Z,100181.19
2022-10-03T02:19:53.068Z,100189.09
2022-10-03T02:22:44.267Z,100197.28
2022-10-03T02:25:24.876Z,100199.97
2022-10-03T02:28:30.980Z,100205.91
2022-10-03T02:31:23.213Z,100204.41
2022-10-03T02:34:26.079Z,100204.34
2022-10-03T02:36:57.919Z,100211.38
2022-10-03T02:39:45.944Z,100213.56
2022-10-03T02:42:51.797Z,100214.34
2022-10-03T02:46:06.983Z,100215.25
2022-10-03T02:48:57.528Z,100212.25
2022-10-03T02:51:45.613Z,100216.00
2022-10-03T02:54:41.803Z,100226.63
2022-10-03T02:57:53.388Z,100226.00
2022-10-03T03:00:43.054Z,100225.91
2022-10-03T03:03:38.237Z,100233.69
2022-10-03T03:06:28.404Z,100245.47
2022-10-03T03:09:25.865Z,100238.34
2022-10-03T03:12:41.025Z,100245.16
2022-10-03T03:15:53.500Z,100250.56
2022-10-03T03:18:50.869Z,100246.41
2022-10-03T03:21:56.383Z,100260.63
2022-10-03T03:24:46.689Z,100261.09
2022-10-03T03:27:24.614Z,100255.13
2022-10-03T03:30:14.606Z,100275.13
2022-10-03T03:33:06.655Z,100274.63
2022-10-03T03:35:41.254Z,100272.59
2022-10-03T03:38:32.501Z,100280.28
2022-10-03T03:41:28.889Z,100281.31
2022-10-03T03:44:17.012Z,100285.09
2022-10-03T03:47:33.660Z,100282.13
2022-10-03T03:50:30.067Z,100276.84
2022-10-03T03:53:37.281Z,100282.69
2022-10-03T03:56:36.209Z,100276.03
2022-10-03T03:59:55.760Z,100286.78
2022-10-03T04:02:48.454Z,100288.34
2022-10-03T04:05:55.219Z,100294.84
2022-10-03T04:09:02.013Z,100295.38
2022-10-03T04:12:10.619Z,100299.56
2022-10-03T04:15:22.638Z,100302.56
2022-10-03T04:19:01.918Z,100304.41
2022-10-03T04:22:06.373Z,100309.66
2022-10-03T04:25:19.537Z,100306.84
2022-10-03T04:28:28.946Z,100313.00
2022-10-03T04:31:43.550Z,100324.56
2022-10-03T04:38:08.705Z,100334.31
2022-10-03T04:41:05.331Z,100333.28
2022-10-03T04:47:45.746Z,100337.91
2022-10-03T04:51:07.977Z,100350.59
2022-10-03T04:57:30.796Z,100347.50
2022-10-03T05:00:20.495Z,100354.28
2022-10-03T05:03:27.653Z,100357.34
2022-10-03T05:06:00.563Z,100351.22
2022-10-03T05:09:01.239Z,100359.56
2022-10-03T05:12:16.949Z,100368.28
2022-10-03T05:15:30.813Z,100376.72
2022-10-03T05:18:47.930Z,100382.84
2022-10-03T05:21:36.912Z,100378.09
2022-10-03T05:24:31.595Z,100383.66
2022-10-03T05:27:28.140Z,100381.75
2022-10-03T05:30:14.977Z,100375.63
2022-10-03T05:33:42.144Z,100374.72
2022-10-03T05:36:46.583Z,100385.81
2022-10-03T05:39:26.607Z,100387.97
2022-10-03T05:45:53.144Z,100398.50
2022-10-03T05:48:59.320Z,100396.00
2022-10-03T05:52:13.361Z,100402.50
2022-10-03T05:54:51.298Z,100394.47
2022-10-03T06:08:19.553Z,100431.00
2022-10-03T06:11:42.366Z,100431.25
2022-10-03T06:14:29.204Z,100438.09
2022-10-03T06:17:39.772Z,100447.69
2022-10-03T06:20:48.587Z,100439.09
2022-10-03T06:23:56.412Z,100451.31
2022-10-03T06:27:05.822Z,100451.53
2022-10-03T06:30:12.080Z,100459.19
2022-10-03T06:33:17.671Z,100474.25
2022-10-03T06:36:26.648Z,100457.25
2022-10-03T06:39:32.500Z,100463.53
2022-10-03T06:42:49.820Z,100448.28
2022-10-03T06:45:38.455Z,100462.25
2022-10-03T06:48:46.504Z,100462.00
2022-10-03T06:51:35.921Z,100466.81
2022-10-03T06:54:41.217Z,100466.66
2022-10-03T06:57:48.806Z,100469.34
2022-10-03T07:00:45.855Z,100466.47
2022-10-03T07:03:52.674Z,100477.53
2022-10-03T07:06:30.998Z,100468.19
2022-10-03T07:09:37.307Z,100463.00
2022-10-03T07:12:39.655Z,100480.81
2022-10-03T07:16:08.875Z,100468.66
2022-10-03T07:19:01.606Z,100478.81
2022-10-03T07:22:22.983Z,100476.34
2022-10-03T07:25:26.219Z,100482.00
2022-10-03T07:28:24.569Z,100482.59
2022-10-03T07:31:31.346Z,100468.91
2022-10-03T07:34:36.144Z,100477.00
2022-10-03T07:38:01.363Z,100480.50
2022-10-03T07:40:47.431Z,100487.72
2022-10-03T07:43:59.259Z,100486.09
2022-10-03T07:47:17.649Z,100475.44
2022-10-03T07:50:19.202Z,100486.63
2022-10-03T07:53:10.559Z,100485.38
2022-10-03T07:56:42.872Z,100491.56
2022-10-03T07:59:37.583Z,100486.94
2022-10-03T08:02:38.334Z,100491.06
2022-10-03T08:05:44.202Z,100497.72
2022-10-03T08:08:54.442Z,100497.09
2022-10-03T08:11:58.177Z,100488.34
2022-10-03T08:15:08.266Z,100496.03
2022-10-03T08:17:56.531Z,100496.44
2022-10-03T08:21:02.432Z,100497.91
2022-10-03T08:24:10.090Z,100500.25
2022-10-03T08:26:58.134Z,100499.28
2022-10-03T08:29:46.578Z,100508.38
2022-10-03T08:32:49.283Z,100513.97
2022-10-03T08:35:38.696Z,100509.19
2022-10-03T08:38:52.698Z,100490.81
2022-10-03T08:42:03.878Z,100510.63
2022-10-03T08:45:14.053Z,100515.31
2022-10-03T08:48:25.598Z,100514.84
2022-10-03T08:51:37.254Z,100519.72
2022-10-03T08:54:56.074Z,100513.59
2022-10-03T08:57:57.857Z,100514.63
2022-10-03T09:00:56.140Z,100523.97
2022-10-03T09:03:57.961Z,100524.00
2022-10-03T09:10:03.670Z,100516.09
2022-10-03T09:13:17.787Z,100507.59
2022-10-03T09:16:34.611Z,100534.06
2022-10-03T09:19:49.901Z,100535.34
2022-10-03T09:22:23.902Z,100521.09
2022-10-03T09:25:20.611Z,100539.34
2022-10-03T09:27:54.676Z,100533.28
2022-10-03T09:31:05.234Z,100542.69
2022-10-03T09:33:49.423Z,100550.19
2022-10-03T09:37:16.384Z,100556.09
2022-10-03T09:40:03.159Z,100548.88
2022-10-03T09:43:03.633Z,100548.75
2022-10-03T09:46:13.118Z,100552.66
2022-10-03T09:49:19.985Z,100549.38
2022-10-03T09:52:32.712Z,100533.84
2022-10-03T09:55:15.957Z,100538.81
2022-10-03T09:58:38.943Z,100524.91
2022-10-03T10:01:36.391Z,100533.16
2022-10-03T10:04:43.357Z,100542.94
2022-10-03T10:07:49.352Z,100564.00
2022-10-03T10:10:58.533Z,100545.53
2022-10-03T10:14:06.853Z,100549.22
2022-10-03T10:17:08.521Z,100551.22
2022-10-03T10:20:17.549Z,100542.34
2022-10-03T10:23:23.535Z,100548.91
2022-10-03T10:26:29.592Z,100558.03
2022-10-03T10:29:30.156Z,100566.09
2022-10-03T10:32:36.871Z,100564.59
2022-10-03T10:36:07.508Z,100563.59
2022-10-03T10:39:10.914Z,100559.97
2022-10-03T10:42:35.035Z,100559.72
2022-10-03T10:45:42.648Z,100550.16
2022-10-03T10:48:49.438Z,100559.03
2022-10-03T10:51:48.159Z,100564.13
2022-10-03T10:54:53.046Z,100557.59
2022-10-03T10:58:04.378Z,100553.91
2022-10-03T11:00:59.544Z,100558.59
2022-10-03T11:04:18.109Z,100552.88
2022-10-03T11:07:14.220Z,100548.47
2022-10-03T11:10:26.963Z,100545.00
2022-10-03T11:13:36.340Z,100549.91
2022-10-03T11:16:29.991Z,100565.88
2022-10-03T11:19:35.704Z,100566.44
2022-10-03T11:22:40.548Z,100569.31
2022-10-03T11:25:49.039Z,100570.75
2022-10-03T11:28:57.463Z,100555.03
2022-10-03T11:31:45.323Z,100585.25
2022-10-03T11:34:53.688Z,100568.59
2022-10-03T11:37:50.032Z,100562.66
2022-10-03T11:40:59.165Z,100572.84
2022-10-03T11:43:51.709Z,100571.72
2022-10-03T11:46:53.239Z,100571.56
2022-10-03T11:49:21.760Z,100568.84
2022-10-03T11:52:10.578Z,100573.25
2022-10-03T11:54:51.043Z,100572.47
2022-10-03T11:57:40.315Z,100570.06
2022-10-03T12:00:23.958Z,100567.63
2022-10-03T12:03:22.032Z,100567.97
2022-10-03T12:06:21.387Z,100554.56
2022-10-03T12:09:20.567Z,100555.66
2022-10-03T12:12:07.532Z,100557.22
2022-10-03T12:14:47.728Z,100546.31
2022-10-03T12:17:37.350Z,100553.31
2022-10-03T12:20:28.930Z,100550.78
2022-10-03T12:23:41.556Z,100550.88
2022-10-03T12:26:21.418Z,100559.78
2022-10-03T12:28:55.518Z,100561.72
2022-10-03T12:31:42.955Z,100561.75
2022-10-03T12:34:41.172Z,100550.81
2022-10-03T12:37:42.934Z,100569.03
2022-10-03T12:40:20.644Z,100558.81
2022-10-03T12:43:24.643Z,100559.94
2022-10-03T12:46:32.083Z,100561.25
2022-10-03T12:49:14.345Z,100554.97
2022-10-03T12:51:58.385Z,100573.38
2022-10-03T12:54:53.863Z,100572.22
2022-10-03T12:57:52.802Z,100582.09
2022-10-03T13:01:00.227Z,100579.47
2022-10-03T13:04:26.108Z,100565.75
2022-10-03T13:07:28.680Z,100567.00
2022-10-03T13:10:21.913Z,100570.75
2022-10-03T13:12:59.183Z,100569.50
2022-10-03T13:16:04.626Z,100559.88
2022-10-03T13:18:53.054Z,100564.84
2022-10-03T13:21:48.709Z,100564.22
2022-10-03T13:24:47.784Z,100574.09
2022-10-03T13:27:34.432Z,100561.56
2022-10-03T13:30:26.171Z,100568.69
2022-10-03T13:33:01.750Z,100568.06
2022-10-03T13:36:21.903Z,100565.94
2022-10-03T13:39:14.116Z,100578.16
2022-10-03T13:42:03.811Z,100589.19
2022-10-03T13:44:55.786Z,100585.59
2022-10-03T13:47:56.890Z,100577.72
2022-10-03T13:50:36.327Z,100569.25
2022-10-03T13:53:35.758Z,100581.28
2022-10-03T13:56:32.744Z,100587.97
2022-10-03T13:59:43.017Z,100593.59
2022-10-03T14:03:05.894Z,100584.69
2022-10-03T14:06:02.766Z,100591.22
2022-10-03T14:09:16.643Z,100586.63
2022-10-03T14:12:09.475Z,100596.84
2022-10-03T14:15:15.530Z,100595.75
2022-10-03T14:18:10.760Z,100603.56
2022-10-03T14:21:21.853Z,100603.97
2022-10-03T14:24:11.462Z,100604.97
2022-10-03T14:26:53.729Z,100608.84
2022-10-03T14:29:59.689Z,100602.66
2022-10-03T14:35:51.821Z,100607.72
2022-10-03T14:39:02.773Z,100605.59
2022-10-03T14:42:06.188Z,100602.09
2022-10-03T14:44:46.084Z,100602.38
2022-10-03T14:47:22.391Z,100608.78
2022-10-03T14:50:10.529Z,100623.00
2022-10-03T14:53:08.125Z,100624.97
2022-10-03T14:56:12.205Z,100624.69
2022-10-03T14:58:55.266Z,100630.75
2022-10-03T15:01:31.982Z,100627.88
2022-10-03T15:04:36.213Z,100627.63
2022-10-03T15:07:12.612Z,100623.13
2022-10-03T15:09:53.863Z,100630.09
2022-10-03T15:12:38.845Z,100632.94
2022-10-03T15:15:26.819Z,100643.16
2022-10-03T15:18:00.920Z,100642.81
2022-10-03T15:20:38.829Z,100642.81
2022-10-03T15:23:18.248Z,100652.91
2022-10-03T15:25:58.212Z,100645.75
2022-10-03T15:29:00.971Z,100648.78
2022-10-03T15:31:46.249Z,100648.34
2022-10-03T15:34:22.891Z,100649.31
2022-10-03T15:37:00.695Z,100647.69
2022-10-03T15:39:45.573Z,100657.75
2022-10-03T15:42:30.209Z,100659.25
2022-10-03T15:48:37.740Z,100665.38
2022-10-03T15:51:19.096Z,100664.88
2022-10-03T15:53:53.666Z,100663.09
2022-10-03T15:56:44.900Z,100666.56
2022-10-03T15:59:34.463Z,100659.53
2022-10-03T16:02:30.460Z,100667.00
2022-10-03T16:05:08.454Z,100666.28
2022-10-03T16:08:11.272Z,100670.06
2022-10-03T16:10:46.873Z,100678.38
2022-10-03T16:14:09.157Z,100666.31
2022-10-03T16:16:45.068Z,100664.47
2022-10-03T16:19:41.586Z,100656.19
2022-10-03T16:22:37.299Z,100650.00
2022-10-03T16:25:18.484Z,100661.47
2022-10-03T16:27:57.918Z,100667.50
2022-10-03T16:30:45.824Z,100664.63
2022-10-03T16:33:38.308Z,100667.31
2022-10-03T16:36:13.814Z,100664.41
2022-10-03T16:39:05.504Z,100658.81
2022-10-03T16:41:49.476Z,100672.75
2022-10-03T16:44:48.320Z,100665.25
2022-10-03T16:47:28.948Z,100655.47
2022-10-03T16:50:18.433Z,100663.38
2022-10-03T16:52:55.941Z,100668.81
2022-10-03T16:55:38.542Z,100665.06
2022-10-03T16:58:09.712Z,100668.78
2022-10-03T17:01:22.096Z,100673.13
2022-10-03T17:03:55.155Z,100679.78
2022-10-03T17:06:36.790Z,100683.91
2022-10-03T17:09:26.063Z,100679.78
2022-10-03T17:12:04.612Z,100678.09
2022-10-03T17:14:44.297Z,100674.78
2022-10-03T17:18:08.755Z,100669.56
2022-10-03T17:20:50.726Z,100667.69
2022-10-03T17:24:06.994Z,100672.69
2022-10-03T17:26:53.025Z,100684.75
2022-10-03T17:29:29.001Z,100679.09
2022-10-03T17:32:17.424Z,100671.22
2022-10-03T17:35:11.479Z,100676.16
2022-10-03T17:38:44.646Z,100675.09
2022-10-03T17:41:46.114Z,100669.06
2022-10-03T17:44:51.782Z,100679.09
2022-10-03T17:48:29.792Z,100676.56
2022-10-03T17:51:30.361Z,100675.53
2022-10-03T17:54:12.284Z,100668.28
2022-10-03T17:56:57.974Z,100681.00
2022-10-03T17:59:47.194Z,100677.44
2022-10-03T18:02:28.851Z,100669.34
2022-10-03T18:05:10.415Z,100673.72
2022-10-03T18:07:40.705Z,100666.84
2022-10-03T18:10:30.047Z,100671.44
2022-10-03T18:13:02.219Z,100663.53
2022-10-03T18:16:00.878Z,100664.75
2022-10-03T18:18:59.503Z,100681.00
2022-10-03T18:22:06.944Z,100679.16
2022-10-03T18:28:29.392Z,100708.44
2022-10-03T18:31:25.543Z,100715.69
2022-10-03T18:34:24.991Z,100717.47
2022-10-03T18:40:34.690Z,100734.81
2022-10-03T18:43:27.539Z,100733.13
2022-10-03T18:46:27.947Z,100750.66
2022-10-03T18:49:36.208Z,100761.88
2022-10-03T18:52:29.634Z,100746.81
2022-10-03T18:55:40.135Z,100754.81
2022-10-03T19:01:58.259Z,100718.06
2022-10-03T19:04:46.643Z,100729.47
2022-10-03T19:07:32.862Z,100726.59
2022-10-03T19:10:16.290Z,100712.84
2022-10-03T19:13:02.515Z,100705.03
2022-10-03T19:16:25.451Z,100702.66
2022-10-03T19:19:25.776Z,100701.75
2022-10-03T19:22:09.859Z,100694.78
2022-10-03T19:24:58.503Z,100704.94
2022-10-03T19:27:58.914Z,100707.66
2022-10-03T19:30:35.888Z,100719.72
2022-10-03T19:33:25.193Z,100714.59
2022-10-03T19:36:06.066Z,100716.91
2022-10-03T19:38:43.298Z,100725.63
2022-10-03T19:41:52.835Z,100735.63
2022-10-03T19:44:33.393Z,100733.19
2022-10-03T19:47:19.980Z,100731.91
2022-10-03T19:50:21.306Z,100724.00
2022-10-03T19:52:50.757Z,100720.03
2022-10-03T19:55:26.151Z,100716.50
2022-10-03T19:58:24.191Z,100725.22
2022-10-03T20:01:01.677Z,100716.91
2022-10-03T20:04:01.412Z,100715.88
2022-10-03T20:06:47.440Z,100719.41
2022-10-03T20:09:27.767Z,100709.84
2022-10-03T20:44:53.044Z,100709.84
2022-10-03T20:52:10.370Z,100709.84
2022-10-03T21:05:24.512Z,100715.06
2022-10-03T21:10:55.984Z,100707.81
2022-10-03T21:13:57.275Z,100717.28
2022-10-03T21:16:49.634Z,100713.19
2022-10-03T21:19:50.390Z,100698.44
2022-10-03T22:11:55.735Z,100685.84
